sensor_id;sensor_type;location;lat;lon;timestamp;P1;durP1;ratioP1;P2;durP2;ratioP2
462;SDS011;218;51.902;9.542;2023-03-14T00:01:21;3.20;;;2.70;;
462;SDS011;218;51.902;9.542;2023-03-14T00:03:49;3.57;;;3.27;;
462;SDS011;218;51.902;9.542;2023-03-14T00:06:17;4.77;;;2.80;;
462;SDS011;218;51.902;9.542;2023-03-14T00:08:44;3.83;;;2.80;;
462;SDS011;218;51.902;9.542;2023-03-14T00:11:12;4.03;;;3.67;;
462;SDS011;218;51.902;9.542;2023-03-14T00:13:40;2.63;;;2.40;;
462;SDS011;218;51.902;9.542;2023-03-14T00:16:08;4.10;;;2.97;;
462;SDS011;218;51.902;9.542;2023-03-14T00:18:35;3.80;;;2.90;;
462;SDS011;218;51.902;9.542;2023-03-14T00:21:04;3.03;;;2.47;;
462;SDS011;218;51.902;9.542;2023-03-14T00:23:32;3.37;;;3.17;;
462;SDS011;218;51.902;9.542;2023-03-14T00:26:01;2.70;;;2.60;;
462;SDS011;218;51.902;9.542;2023-03-14T00:28:29;2.80;;;2.60;;
462;SDS011;218;51.902;9.542;2023-03-14T00:30:56;3.17;;;2.97;;
462;SDS011;218;51.902;9.542;2023-03-14T00:33:23;3.03;;;2.83;;
462;SDS011;218;51.902;9.542;2023-03-14T00:35:54;3.40;;;3.20;;
462;SDS011;218;51.902;9.542;2023-03-14T00:38:23;2.73;;;2.53;;
462;SDS011;218;51.902;9.542;2023-03-14T00:40:51;3.93;;;2.70;;
462;SDS011;218;51.902;9.542;2023-03-14T00:43:19;2.97;;;2.77;;
462;SDS011;218;51.902;9.542;2023-03-14T00:45:47;2.77;;;2.57;;
462;SDS011;218;51.902;9.542;2023-03-14T00:48:14;2.47;;;2.37;;
462;SDS011;218;51.902;9.542;2023-03-14T00:50:42;4.53;;;2.60;;
462;SDS011;218;51.902;9.542;2023-03-14T00:53:09;2.07;;;1.97;;
462;SDS011;218;51.902;9.542;2023-03-14T00:55:38;2.57;;;2.40;;
462;SDS011;218;51.902;9.542;2023-03-14T00:58:05;2.53;;;2.20;;
462;SDS011;218;51.902;9.542;2023-03-14T01:00:33;3.23;;;2.50;;
462;SDS011;218;51.902;9.542;2023-03-14T01:03:00;2.83;;;2.67;;
462;SDS011;218;51.902;9.542;2023-03-14T01:05:27;2.37;;;2.27;;
462;SDS011;218;51.902;9.542;2023-03-14T01:07:54;2.37;;;2.03;;
462;SDS011;218;51.902;9.542;2023-03-14T01:10:22;6.40;;;3.00;;
462;SDS011;218;51.902;9.542;2023-03-14T01:12:50;2.47;;;2.27;;
462;SDS011;218;51.902;9.542;2023-03-14T01:15:18;3.30;;;3.00;;
462;SDS011;218;51.902;9.542;2023-03-14T01:17:45;2.20;;;2.00;;
462;SDS011;218;51.902;9.542;2023-03-14T01:20:12;2.43;;;2.33;;
462;SDS011;218;51.902;9.542;2023-03-14T01:22:40;2.20;;;2.10;;
462;SDS011;218;51.902;9.542;2023-03-14T01:25:08;2.33;;;2.23;;
462;SDS011;218;51.902;9.542;2023-03-14T01:27:36;2.20;;;2.10;;
462;SDS011;218;51.902;9.542;2023-03-14T01:30:05;2.40;;;2.30;;
462;SDS011;218;51.902;9.542;2023-03-14T01:32:33;2.30;;;2.17;;
462;SDS011;218;51.902;9.542;2023-03-14T01:35:00;2.23;;;2.13;;
462;SDS011;218;51.902;9.542;2023-03-14T01:37:28;2.37;;;2.27;;
462;SDS011;218;51.902;9.542;2023-03-14T01:39:55;2.27;;;1.97;;
462;SDS011;218;51.902;9.542;2023-03-14T01:42:22;2.40;;;2.30;;
462;SDS011;218;51.902;9.542;2023-03-14T01:44:50;3.60;;;2.00;;
462;SDS011;218;51.902;9.542;2023-03-14T01:47:19;2.23;;;2.10;;
462;SDS011;218;51.902;9.542;2023-03-14T01:49:47;2.37;;;2.13;;
462;SDS011;218;51.902;9.542;2023-03-14T01:52:18;6.43;;;2.30;;
462;SDS011;218;51.902;9.542;2023-03-14T01:54:49;3.53;;;2.00;;
462;SDS011;218;51.902;9.542;2023-03-14T01:57:18;2.40;;;2.20;;
462;SDS011;218;51.902;9.542;2023-03-14T01:59:47;2.83;;;2.63;;
462;SDS011;218;51.902;9.542;2023-03-14T02:02:16;2.30;;;2.20;;
462;SDS011;218;51.902;9.542;2023-03-14T02:04:44;2.53;;;2.00;;
462;SDS011;218;51.902;9.542;2023-03-14T02:07:12;2.27;;;1.83;;
462;SDS011;218;51.902;9.542;2023-03-14T02:09:42;2.80;;;2.10;;
462;SDS011;218;51.902;9.542;2023-03-14T02:12:09;2.10;;;2.00;;
462;SDS011;218;51.902;9.542;2023-03-14T02:14:38;2.83;;;2.57;;
462;SDS011;218;51.902;9.542;2023-03-14T02:17:06;3.17;;;1.80;;
462;SDS011;218;51.902;9.542;2023-03-14T02:19:41;2.93;;;2.13;;
462;SDS011;218;51.902;9.542;2023-03-14T02:22:14;2.70;;;2.47;;
462;SDS011;218;51.902;9.542;2023-03-14T02:24:43;2.17;;;2.03;;
462;SDS011;218;51.902;9.542;2023-03-14T02:27:18;2.67;;;2.30;;
462;SDS011;218;51.902;9.542;2023-03-14T02:29:48;3.60;;;2.80;;
462;SDS011;218;51.902;9.542;2023-03-14T02:32:16;3.27;;;1.90;;
462;SDS011;218;51.902;9.542;2023-03-14T02:34:45;3.27;;;2.20;;
462;SDS011;218;51.902;9.542;2023-03-14T02:37:15;5.07;;;2.10;;
462;SDS011;218;51.902;9.542;2023-03-14T02:39:43;2.67;;;2.57;;
462;SDS011;218;51.902;9.542;2023-03-14T02:42:13;2.17;;;2.07;;
462;SDS011;218;51.902;9.542;2023-03-14T02:44:54;1.93;;;1.83;;
462;SDS011;218;51.902;9.542;2023-03-14T02:47:42;2.23;;;2.03;;
462;SDS011;218;51.902;9.542;2023-03-14T02:50:12;2.33;;;2.20;;
462;SDS011;218;51.902;9.542;2023-03-14T02:52:41;1.87;;;1.70;;
462;SDS011;218;51.902;9.542;2023-03-14T02:55:09;2.10;;;2.00;;
462;SDS011;218;51.902;9.542;2023-03-14T02:57:36;1.93;;;1.83;;
462;SDS011;218;51.902;9.542;2023-03-14T03:00:05;2.17;;;2.07;;
462;SDS011;218;51.902;9.542;2023-03-14T03:02:33;2.43;;;2.17;;
462;SDS011;218;51.902;9.542;2023-03-14T03:05:00;2.03;;;1.83;;
462;SDS011;218;51.902;9.542;2023-03-14T03:07:27;2.30;;;2.10;;
462;SDS011;218;51.902;9.542;2023-03-14T03:09:54;3.60;;;3.03;;
462;SDS011;218;51.902;9.542;2023-03-14T03:12:21;3.40;;;1.90;;
462;SDS011;218;51.902;9.542;2023-03-14T03:14:49;2.27;;;1.87;;
462;SDS011;218;51.902;9.542;2023-03-14T03:17:17;2.53;;;2.43;;
462;SDS011;218;51.902;9.542;2023-03-14T03:19:44;2.60;;;1.90;;
462;SDS011;218;51.902;9.542;2023-03-14T03:22:11;2.40;;;2.20;;
462;SDS011;218;51.902;9.542;2023-03-14T03:24:39;1.97;;;1.87;;
462;SDS011;218;51.902;9.542;2023-03-14T03:27:06;3.57;;;2.73;;
462;SDS011;218;51.902;9.542;2023-03-14T03:29:33;2.83;;;1.77;;
462;SDS011;218;51.902;9.542;2023-03-14T03:32:00;2.40;;;1.93;;
462;SDS011;218;51.902;9.542;2023-03-14T03:34:28;2.30;;;2.10;;
462;SDS011;218;51.902;9.542;2023-03-14T03:36:55;2.23;;;1.80;;
462;SDS011;218;51.902;9.542;2023-03-14T03:39:23;2.10;;;2.00;;
462;SDS011;218;51.902;9.542;2023-03-14T03:41:50;2.13;;;2.03;;
462;SDS011;218;51.902;9.542;2023-03-14T03:44:17;2.10;;;2.00;;
462;SDS011;218;51.902;9.542;2023-03-14T03:46:44;1.87;;;1.67;;
462;SDS011;218;51.902;9.542;2023-03-14T03:49:11;3.03;;;1.87;;
462;SDS011;218;51.902;9.542;2023-03-14T03:51:40;2.23;;;2.13;;
462;SDS011;218;51.902;9.542;2023-03-14T03:54:07;2.20;;;2.00;;
462;SDS011;218;51.902;9.542;2023-03-14T03:56:34;2.10;;;2.00;;
462;SDS011;218;51.902;9.542;2023-03-14T03:59:01;2.03;;;1.80;;
462;SDS011;218;51.902;9.542;2023-03-14T04:01:28;1.93;;;1.80;;
462;SDS011;218;51.902;9.542;2023-03-14T04:03:55;2.00;;;1.83;;
462;SDS011;218;51.902;9.542;2023-03-14T04:06:22;2.17;;;1.97;;
462;SDS011;218;51.902;9.542;2023-03-14T04:08:51;2.37;;;2.17;;
462;SDS011;218;51.902;9.542;2023-03-14T04:11:18;1.57;;;1.47;;
462;SDS011;218;51.902;9.542;2023-03-14T04:13:45;1.47;;;1.37;;
462;SDS011;218;51.902;9.542;2023-03-14T04:16:13;1.70;;;1.60;;
462;SDS011;218;51.902;9.542;2023-03-14T04:18:42;1.60;;;1.50;;
462;SDS011;218;51.902;9.542;2023-03-14T04:21:09;1.97;;;1.87;;
462;SDS011;218;51.902;9.542;2023-03-14T04:23:36;1.60;;;1.50;;
462;SDS011;218;51.902;9.542;2023-03-14T04:26:05;1.70;;;1.60;;
462;SDS011;218;51.902;9.542;2023-03-14T04:28:32;2.93;;;1.40;;
462;SDS011;218;51.902;9.542;2023-03-14T04:31:06;1.77;;;1.40;;
462;SDS011;218;51.902;9.542;2023-03-14T04:33:33;1.70;;;1.60;;
462;SDS011;218;51.902;9.542;2023-03-14T04:36:01;2.00;;;1.90;;
462;SDS011;218;51.902;9.542;2023-03-14T04:38:28;1.90;;;1.70;;
462;SDS011;218;51.902;9.542;2023-03-14T04:40:55;2.10;;;1.70;;
462;SDS011;218;51.902;9.542;2023-03-14T04:43:24;2.00;;;1.90;;
462;SDS011;218;51.902;9.542;2023-03-14T04:45:51;1.60;;;1.60;;
462;SDS011;218;51.902;9.542;2023-03-14T04:48:18;1.40;;;1.30;;
462;SDS011;218;51.902;9.542;2023-03-14T04:50:45;2.10;;;1.60;;
462;SDS011;218;51.902;9.542;2023-03-14T04:53:13;1.67;;;1.43;;
462;SDS011;218;51.902;9.542;2023-03-14T04:55:40;1.73;;;1.63;;
462;SDS011;218;51.902;9.542;2023-03-14T04:58:07;1.50;;;1.40;;
462;SDS011;218;51.902;9.542;2023-03-14T05:00:36;1.70;;;1.60;;
462;SDS011;218;51.902;9.542;2023-03-14T05:03:03;1.40;;;1.30;;
462;SDS011;218;51.902;9.542;2023-03-14T05:05:30;1.40;;;1.30;;
462;SDS011;218;51.902;9.542;2023-03-14T05:07:57;1.90;;;1.80;;
462;SDS011;218;51.902;9.542;2023-03-14T05:10:24;1.90;;;1.80;;
462;SDS011;218;51.902;9.542;2023-03-14T05:12:51;3.40;;;1.80;;
462;SDS011;218;51.902;9.542;2023-03-14T05:15:18;2.40;;;2.20;;
462;SDS011;218;51.902;9.542;2023-03-14T05:17:47;1.60;;;1.50;;
462;SDS011;218;51.902;9.542;2023-03-14T05:20:15;1.47;;;1.47;;
462;SDS011;218;51.902;9.542;2023-03-14T05:22:42;3.43;;;2.70;;
462;SDS011;218;51.902;9.542;2023-03-14T05:25:09;1.90;;;1.80;;
462;SDS011;218;51.902;9.542;2023-03-14T05:27:36;1.97;;;1.80;;
462;SDS011;218;51.902;9.542;2023-03-14T05:30:04;1.60;;;1.50;;
462;SDS011;218;51.902;9.542;2023-03-14T05:32:32;1.70;;;1.63;;
462;SDS011;218;51.902;9.542;2023-03-14T05:35:00;1.83;;;1.53;;
462;SDS011;218;51.902;9.542;2023-03-14T05:37:28;1.90;;;1.90;;
462;SDS011;218;51.902;9.542;2023-03-14T05:39:55;1.97;;;1.87;;
462;SDS011;218;51.902;9.542;2023-03-14T05:42:22;2.00;;;1.90;;
462;SDS011;218;51.902;9.542;2023-03-14T05:44:49;2.10;;;2.00;;
462;SDS011;218;51.902;9.542;2023-03-14T05:47:17;2.60;;;2.40;;
462;SDS011;218;51.902;9.542;2023-03-14T05:49:44;3.33;;;2.60;;
462;SDS011;218;51.902;9.542;2023-03-14T05:52:12;3.07;;;2.87;;
462;SDS011;218;51.902;9.542;2023-03-14T05:54:39;2.50;;;2.30;;
462;SDS011;218;51.902;9.542;2023-03-14T05:57:06;2.77;;;2.57;;
462;SDS011;218;51.902;9.542;2023-03-14T05:59:34;2.90;;;2.70;;
462;SDS011;218;51.902;9.542;2023-03-14T06:02:01;2.43;;;2.33;;
462;SDS011;218;51.902;9.542;2023-03-14T06:04:28;3.20;;;3.10;;
462;SDS011;218;51.902;9.542;2023-03-14T06:06:55;2.83;;;2.63;;
462;SDS011;218;51.902;9.542;2023-03-14T06:09:24;2.00;;;1.90;;
462;SDS011;218;51.902;9.542;2023-03-14T06:11:51;2.37;;;2.17;;
462;SDS011;218;51.902;9.542;2023-03-14T06:14:18;1.60;;;1.50;;
462;SDS011;218;51.902;9.542;2023-03-14T06:16:45;2.40;;;1.53;;
462;SDS011;218;51.902;9.542;2023-03-14T06:19:14;2.20;;;1.70;;
462;SDS011;218;51.902;9.542;2023-03-14T06:21:41;1.63;;;1.53;;
462;SDS011;218;51.902;9.542;2023-03-14T06:24:09;1.63;;;1.53;;
462;SDS011;218;51.902;9.542;2023-03-14T06:26:37;2.50;;;1.97;;
462;SDS011;218;51.902;9.542;2023-03-14T06:29:04;2.47;;;2.27;;
462;SDS011;218;51.902;9.542;2023-03-14T06:31:31;2.10;;;2.00;;
462;SDS011;218;51.902;9.542;2023-03-14T06:33:59;2.77;;;2.23;;
462;SDS011;218;51.902;9.542;2023-03-14T06:36:26;4.70;;;1.80;;
462;SDS011;218;51.902;9.542;2023-03-14T06:38:53;2.60;;;1.73;;
462;SDS011;218;51.902;9.542;2023-03-14T06:41:20;3.37;;;2.37;;
462;SDS011;218;51.902;9.542;2023-03-14T06:43:50;2.43;;;2.27;;
462;SDS011;218;51.902;9.542;2023-03-14T06:46:17;4.13;;;2.20;;
462;SDS011;218;51.902;9.542;2023-03-14T06:48:44;2.87;;;2.67;;
462;SDS011;218;51.902;9.542;2023-03-14T06:51:11;2.60;;;2.50;;
462;SDS011;218;51.902;9.542;2023-03-14T06:53:38;2.53;;;2.43;;
462;SDS011;218;51.902;9.542;2023-03-14T06:56:06;2.80;;;2.70;;
462;SDS011;218;51.902;9.542;2023-03-14T06:58:33;2.80;;;2.60;;
462;SDS011;218;51.902;9.542;2023-03-14T07:01:02;2.10;;;2.00;;
462;SDS011;218;51.902;9.542;2023-03-14T07:03:29;2.87;;;2.67;;
462;SDS011;218;51.902;9.542;2023-03-14T07:05:56;2.13;;;1.93;;
462;SDS011;218;51.902;9.542;2023-03-14T07:08:24;2.67;;;2.37;;
462;SDS011;218;51.902;9.542;2023-03-14T07:10:51;2.90;;;2.70;;
462;SDS011;218;51.902;9.542;2023-03-14T07:13:18;2.50;;;2.20;;
462;SDS011;218;51.902;9.542;2023-03-14T07:15:45;3.83;;;2.20;;
462;SDS011;218;51.902;9.542;2023-03-14T07:18:13;2.30;;;1.80;;
462;SDS011;218;51.902;9.542;2023-03-14T07:20:41;2.60;;;2.40;;
462;SDS011;218;51.902;9.542;2023-03-14T07:23:08;4.20;;;2.00;;
462;SDS011;218;51.902;9.542;2023-03-14T07:25:35;4.17;;;2.20;;
462;SDS011;218;51.902;9.542;2023-03-14T07:28:02;2.13;;;1.83;;
462;SDS011;218;51.902;9.542;2023-03-14T07:30:29;2.40;;;2.10;;
462;SDS011;218;51.902;9.542;2023-03-14T07:32:56;3.43;;;2.53;;
462;SDS011;218;51.902;9.542;2023-03-14T07:35:24;5.30;;;2.00;;
462;SDS011;218;51.902;9.542;2023-03-14T07:37:51;4.13;;;2.60;;
462;SDS011;218;51.902;9.542;2023-03-14T07:40:18;2.77;;;2.57;;
462;SDS011;218;51.902;9.542;2023-03-14T07:42:45;5.70;;;2.30;;
462;SDS011;218;51.902;9.542;2023-03-14T07:45:13;3.37;;;2.03;;
462;SDS011;218;51.902;9.542;2023-03-14T07:47:40;2.30;;;2.00;;
462;SDS011;218;51.902;9.542;2023-03-14T07:50:07;3.80;;;2.60;;
462;SDS011;218;51.902;9.542;2023-03-14T07:52:36;7.47;;;2.80;;
462;SDS011;218;51.902;9.542;2023-03-14T07:55:03;3.20;;;3.00;;
462;SDS011;218;51.902;9.542;2023-03-14T07:57:31;2.27;;;2.07;;
462;SDS011;218;51.902;9.542;2023-03-14T07:59:58;5.10;;;2.47;;
462;SDS011;218;51.902;9.542;2023-03-14T08:02:25;2.57;;;2.00;;
462;SDS011;218;51.902;9.542;2023-03-14T08:04:52;2.50;;;2.30;;
462;SDS011;218;51.902;9.542;2023-03-14T08:07:19;2.13;;;1.93;;
462;SDS011;218;51.902;9.542;2023-03-14T08:09:47;1.83;;;1.73;;
462;SDS011;218;51.902;9.542;2023-03-14T08:12:14;1.80;;;1.70;;
462;SDS011;218;51.902;9.542;2023-03-14T08:14:42;4.67;;;2.03;;
462;SDS011;218;51.902;9.542;2023-03-14T08:17:09;2.30;;;1.73;;
462;SDS011;218;51.902;9.542;2023-03-14T08:19:36;3.50;;;1.90;;
462;SDS011;218;51.902;9.542;2023-03-14T08:22:03;2.43;;;2.10;;
462;SDS011;218;51.902;9.542;2023-03-14T08:24:31;2.30;;;2.20;;
462;SDS011;218;51.902;9.542;2023-03-14T08:27:00;2.30;;;2.10;;
462;SDS011;218;51.902;9.542;2023-03-14T08:29:27;4.17;;;2.10;;
462;SDS011;218;51.902;9.542;2023-03-14T08:31:55;2.37;;;2.20;;
462;SDS011;218;51.902;9.542;2023-03-14T08:34:22;3.43;;;2.03;;
462;SDS011;218;51.902;9.542;2023-03-14T08:36:49;1.77;;;1.67;;
462;SDS011;218;51.902;9.542;2023-03-14T08:39:16;2.80;;;2.20;;
462;SDS011;218;51.902;9.542;2023-03-14T08:41:43;3.87;;;3.70;;
462;SDS011;218;51.902;9.542;2023-03-14T08:44:11;2.70;;;2.00;;
462;SDS011;218;51.902;9.542;2023-03-14T08:46:39;2.10;;;2.00;;
462;SDS011;218;51.902;9.542;2023-03-14T08:49:06;2.83;;;1.60;;
462;SDS011;218;51.902;9.542;2023-03-14T08:51:33;2.03;;;1.90;;
462;SDS011;218;51.902;9.542;2023-03-14T08:54:00;1.60;;;1.50;;
462;SDS011;218;51.902;9.542;2023-03-14T08:56:27;1.80;;;1.70;;
462;SDS011;218;51.902;9.542;2023-03-14T08:58:54;3.30;;;1.83;;
462;SDS011;218;51.902;9.542;2023-03-14T09:01:22;1.60;;;1.50;;
462;SDS011;218;51.902;9.542;2023-03-14T09:03:51;5.00;;;4.00;;
462;SDS011;218;51.902;9.542;2023-03-14T09:06:18;4.43;;;2.33;;
462;SDS011;218;51.902;9.542;2023-03-14T09:08:45;4.60;;;1.93;;
462;SDS011;218;51.902;9.542;2023-03-14T09:11:12;2.63;;;1.80;;
462;SDS011;218;51.902;9.542;2023-03-14T09:13:39;3.33;;;2.10;;
462;SDS011;218;51.902;9.542;2023-03-14T09:16:07;4.33;;;2.10;;
462;SDS011;218;51.902;9.542;2023-03-14T09:18:36;2.00;;;1.90;;
462;SDS011;218;51.902;9.542;2023-03-14T09:21:03;4.40;;;1.77;;
462;SDS011;218;51.902;9.542;2023-03-14T09:23:30;2.10;;;1.90;;
462;SDS011;218;51.902;9.542;2023-03-14T09:25:58;1.90;;;1.80;;
462;SDS011;218;51.902;9.542;2023-03-14T09:28:25;1.80;;;1.80;;
462;SDS011;218;51.902;9.542;2023-03-14T09:30:52;2.10;;;2.00;;
462;SDS011;218;51.902;9.542;2023-03-14T09:33:20;1.77;;;1.67;;
462;SDS011;218;51.902;9.542;2023-03-14T09:35:49;2.10;;;2.00;;
462;SDS011;218;51.902;9.542;2023-03-14T09:38:16;1.60;;;1.47;;
462;SDS011;218;51.902;9.542;2023-03-14T09:40:45;1.80;;;1.70;;
462;SDS011;218;51.902;9.542;2023-03-14T09:43:13;1.60;;;1.50;;
462;SDS011;218;51.902;9.542;2023-03-14T09:45:41;2.17;;;1.90;;
462;SDS011;218;51.902;9.542;2023-03-14T09:48:12;1.87;;;1.77;;
462;SDS011;218;51.902;9.542;2023-03-14T09:50:42;1.90;;;1.80;;
462;SDS011;218;51.902;9.542;2023-03-14T09:53:12;1.60;;;1.60;;
462;SDS011;218;51.902;9.542;2023-03-14T09:55:42;1.50;;;1.40;;
462;SDS011;218;51.902;9.542;2023-03-14T09:58:11;2.10;;;2.00;;
462;SDS011;218;51.902;9.542;2023-03-14T10:00:39;2.30;;;2.20;;
462;SDS011;218;51.902;9.542;2023-03-14T10:03:14;1.80;;;1.70;;
462;SDS011;218;51.902;9.542;2023-03-14T10:05:46;1.70;;;1.60;;
462;SDS011;218;51.902;9.542;2023-03-14T10:08:15;1.73;;;1.63;;
462;SDS011;218;51.902;9.542;2023-03-14T10:10:42;4.30;;;2.10;;
462;SDS011;218;51.902;9.542;2023-03-14T10:13:12;2.10;;;2.00;;
462;SDS011;218;51.902;9.542;2023-03-14T10:15:42;1.77;;;1.70;;
462;SDS011;218;51.902;9.542;2023-03-14T10:18:13;2.13;;;2.03;;
462;SDS011;218;51.902;9.542;2023-03-14T10:20:40;2.03;;;1.93;;
462;SDS011;218;51.902;9.542;2023-03-14T10:23:20;1.60;;;1.60;;
462;SDS011;218;51.902;9.542;2023-03-14T10:28:37;1.73;;;1.67;;
462;SDS011;218;51.902;9.542;2023-03-14T10:31:05;1.40;;;1.40;;
462;SDS011;218;51.902;9.542;2023-03-14T10:33:33;1.43;;;1.43;;
462;SDS011;218;51.902;9.542;2023-03-14T10:36:00;1.40;;;1.30;;
462;SDS011;218;51.902;9.542;2023-03-14T10:38:30;1.30;;;1.30;;
462;SDS011;218;51.902;9.542;2023-03-14T10:40:58;1.33;;;1.33;;
462;SDS011;218;51.902;9.542;2023-03-14T10:43:26;1.50;;;1.40;;
462;SDS011;218;51.902;9.542;2023-03-14T10:45:57;1.57;;;1.47;;
462;SDS011;218;51.902;9.542;2023-03-14T10:48:30;1.40;;;1.40;;
462;SDS011;218;51.902;9.542;2023-03-14T10:51:01;1.67;;;1.50;;
462;SDS011;218;51.902;9.542;2023-03-14T10:53:34;1.40;;;1.40;;
462;SDS011;218;51.902;9.542;2023-03-14T10:56:02;1.40;;;1.40;;
462;SDS011;218;51.902;9.542;2023-03-14T10:58:31;1.30;;;1.30;;
462;SDS011;218;51.902;9.542;2023-03-14T11:01:11;1.30;;;1.30;;
462;SDS011;218;51.902;9.542;2023-03-14T11:03:51;1.60;;;1.60;;
462;SDS011;218;51.902;9.542;2023-03-14T11:06:23;1.47;;;1.47;;
462;SDS011;218;51.902;9.542;2023-03-14T11:09:00;1.40;;;1.30;;
462;SDS011;218;51.902;9.542;2023-03-14T11:11:31;1.27;;;1.27;;
462;SDS011;218;51.902;9.542;2023-03-14T11:14:01;1.30;;;1.30;;
462;SDS011;218;51.902;9.542;2023-03-14T11:16:40;1.77;;;1.73;;
462;SDS011;218;51.902;9.542;2023-03-14T11:19:28;2.40;;;2.20;;
462;SDS011;218;51.902;9.542;2023-03-14T11:21:58;1.37;;;1.37;;
462;SDS011;218;51.902;9.542;2023-03-14T11:27:31;1.70;;;1.60;;
462;SDS011;218;51.902;9.542;2023-03-14T11:30:13;1.80;;;1.70;;
462;SDS011;218;51.902;9.542;2023-03-14T11:32:44;2.10;;;1.57;;
462;SDS011;218;51.902;9.542;2023-03-14T11:35:16;1.83;;;1.73;;
462;SDS011;218;51.902;9.542;2023-03-14T11:37:46;1.77;;;1.67;;
462;SDS011;218;51.902;9.542;2023-03-14T11:40:18;1.70;;;1.60;;
462;SDS011;218;51.902;9.542;2023-03-14T11:42:47;2.40;;;1.40;;
462;SDS011;218;51.902;9.542;2023-03-14T11:45:25;1.43;;;1.43;;
462;SDS011;218;51.902;9.542;2023-03-14T11:48:00;1.30;;;1.30;;
462;SDS011;218;51.902;9.542;2023-03-14T11:50:44;2.10;;;1.40;;
462;SDS011;218;51.902;9.542;2023-03-14T11:53:16;1.47;;;1.47;;
462;SDS011;218;51.902;9.542;2023-03-14T11:55:48;1.90;;;1.80;;
462;SDS011;218;51.902;9.542;2023-03-14T11:58:17;1.23;;;1.13;;
462;SDS011;218;51.902;9.542;2023-03-14T12:00:46;1.47;;;1.37;;
462;SDS011;218;51.902;9.542;2023-03-14T12:03:15;1.57;;;1.47;;
462;SDS011;218;51.902;9.542;2023-03-14T12:05:50;1.20;;;1.20;;
462;SDS011;218;51.902;9.542;2023-03-14T12:11:33;1.00;;;1.00;;
462;SDS011;218;51.902;9.542;2023-03-14T12:14:02;1.07;;;1.07;;
462;SDS011;218;51.902;9.542;2023-03-14T12:16:31;1.20;;;1.20;;
462;SDS011;218;51.902;9.542;2023-03-14T12:19:13;1.10;;;1.10;;
462;SDS011;218;51.902;9.542;2023-03-14T12:21:45;1.10;;;1.10;;
462;SDS011;218;51.902;9.542;2023-03-14T12:24:16;1.10;;;1.10;;
462;SDS011;218;51.902;9.542;2023-03-14T12:26:48;1.33;;;1.33;;
462;SDS011;218;51.902;9.542;2023-03-14T12:29:16;1.10;;;1.10;;
462;SDS011;218;51.902;9.542;2023-03-14T12:31:44;1.27;;;1.27;;
462;SDS011;218;51.902;9.542;2023-03-14T12:34:31;1.10;;;1.10;;
462;SDS011;218;51.902;9.542;2023-03-14T12:36:59;1.35;;;1.35;;
462;SDS011;218;51.902;9.542;2023-03-14T12:39:37;1.00;;;1.00;;
462;SDS011;218;51.902;9.542;2023-03-14T12:42:10;1.17;;;1.17;;
462;SDS011;218;51.902;9.542;2023-03-14T12:44:42;1.20;;;1.20;;
462;SDS011;218;51.902;9.542;2023-03-14T12:50:14;0.90;;;0.60;;
462;SDS011;218;51.902;9.542;2023-03-14T12:52:44;1.00;;;1.00;;
462;SDS011;218;51.902;9.542;2023-03-14T12:55:17;1.10;;;1.10;;
462;SDS011;218;51.902;9.542;2023-03-14T12:57:50;0.90;;;0.90;;
462;SDS011;218;51.902;9.542;2023-03-14T13:00:22;1.10;;;1.10;;
462;SDS011;218;51.902;9.542;2023-03-14T13:02:59;0.80;;;0.80;;
462;SDS011;218;51.902;9.542;2023-03-14T13:05:27;1.30;;;1.30;;
462;SDS011;218;51.902;9.542;2023-03-14T13:08:04;1.43;;;1.43;;
462;SDS011;218;51.902;9.542;2023-03-14T13:10:43;1.05;;;0.98;;
462;SDS011;218;51.902;9.542;2023-03-14T13:13:21;1.20;;;1.20;;
462;SDS011;218;51.902;9.542;2023-03-14T13:15:54;1.00;;;1.00;;
462;SDS011;218;51.902;9.542;2023-03-14T13:18:26;1.37;;;1.37;;
462;SDS011;218;51.902;9.542;2023-03-14T13:20:58;2.60;;;1.30;;
462;SDS011;218;51.902;9.542;2023-03-14T13:23:26;1.47;;;1.47;;
462;SDS011;218;51.902;9.542;2023-03-14T13:25:54;1.60;;;1.50;;
462;SDS011;218;51.902;9.542;2023-03-14T13:28:22;2.03;;;1.50;;
462;SDS011;218;51.902;9.542;2023-03-14T13:30:50;1.50;;;1.40;;
462;SDS011;218;51.902;9.542;2023-03-14T13:33:22;2.47;;;1.50;;
462;SDS011;218;51.902;9.542;2023-03-14T13:35:54;2.83;;;2.20;;
462;SDS011;218;51.902;9.542;2023-03-14T13:38:22;2.50;;;1.77;;
462;SDS011;218;51.902;9.542;2023-03-14T13:40:50;5.93;;;2.37;;
462;SDS011;218;51.902;9.542;2023-03-14T13:43:18;3.00;;;1.67;;
462;SDS011;218;51.902;9.542;2023-03-14T13:45:51;4.20;;;2.43;;
462;SDS011;218;51.902;9.542;2023-03-14T13:48:19;2.40;;;2.20;;
462;SDS011;218;51.902;9.542;2023-03-14T13:50:54;2.10;;;1.90;;
462;SDS011;218;51.902;9.542;2023-03-14T13:53:23;3.83;;;2.22;;
462;SDS011;218;51.902;9.542;2023-03-14T13:55:51;2.43;;;2.20;;
462;SDS011;218;51.902;9.542;2023-03-14T13:58:23;9.53;;;3.07;;
462;SDS011;218;51.902;9.542;2023-03-14T14:01:02;2.27;;;1.90;;
462;SDS011;218;51.902;9.542;2023-03-14T14:03:31;4.57;;;1.90;;
462;SDS011;218;51.902;9.542;2023-03-14T14:06:00;2.75;;;2.45;;
462;SDS011;218;51.902;9.542;2023-03-14T14:08:28;1.60;;;1.50;;
462;SDS011;218;51.902;9.542;2023-03-14T14:10:56;2.60;;;2.40;;
462;SDS011;218;51.902;9.542;2023-03-14T14:13:25;2.72;;;1.90;;
462;SDS011;218;51.902;9.542;2023-03-14T14:15:55;3.88;;;1.70;;
462;SDS011;218;51.902;9.542;2023-03-14T14:18:24;2.30;;;2.20;;
462;SDS011;218;51.902;9.542;2023-03-14T14:20:53;1.65;;;1.40;;
462;SDS011;218;51.902;9.542;2023-03-14T14:23:21;2.05;;;1.77;;
462;SDS011;218;51.902;9.542;2023-03-14T14:25:51;3.28;;;2.05;;
462;SDS011;218;51.902;9.542;2023-03-14T14:28:21;1.70;;;1.60;;
462;SDS011;218;51.902;9.542;2023-03-14T14:30:59;4.47;;;2.13;;
462;SDS011;218;51.902;9.542;2023-03-14T14:33:30;4.63;;;2.00;;
462;SDS011;218;51.902;9.542;2023-03-14T14:36:11;2.78;;;2.08;;
462;SDS011;218;51.902;9.542;2023-03-14T14:38:39;2.20;;;2.10;;
462;SDS011;218;51.902;9.542;2023-03-14T14:41:10;7.90;;;4.05;;
462;SDS011;218;51.902;9.542;2023-03-14T14:43:38;2.67;;;2.50;;
462;SDS011;218;51.902;9.542;2023-03-14T14:46:06;2.33;;;2.08;;
462;SDS011;218;51.902;9.542;2023-03-14T14:48:37;13.23;;;2.10;;
462;SDS011;218;51.902;9.542;2023-03-14T14:51:05;5.13;;;1.98;;
462;SDS011;218;51.902;9.542;2023-03-14T14:53:35;3.80;;;1.60;;
462;SDS011;218;51.902;9.542;2023-03-14T14:56:03;2.03;;;1.80;;
462;SDS011;218;51.902;9.542;2023-03-14T14:58:33;1.83;;;1.73;;
462;SDS011;218;51.902;9.542;2023-03-14T15:01:03;5.43;;;2.90;;
462;SDS011;218;51.902;9.542;2023-03-14T15:03:33;6.18;;;2.20;;
462;SDS011;218;51.902;9.542;2023-03-14T15:06:03;6.18;;;1.92;;
462;SDS011;218;51.902;9.542;2023-03-14T15:08:30;2.70;;;1.75;;
462;SDS011;218;51.902;9.542;2023-03-14T15:10:57;3.90;;;1.90;;
462;SDS011;218;51.902;9.542;2023-03-14T15:13:24;4.25;;;2.70;;
462;SDS011;218;51.902;9.542;2023-03-14T15:15:52;6.53;;;3.00;;
462;SDS011;218;51.902;9.542;2023-03-14T15:18:21;2.22;;;2.10;;
462;SDS011;218;51.902;9.542;2023-03-14T15:20:48;5.70;;;3.72;;
462;SDS011;218;51.902;9.542;2023-03-14T15:23:20;6.35;;;2.53;;
462;SDS011;218;51.902;9.542;2023-03-14T15:25:48;6.03;;;2.55;;
462;SDS011;218;51.902;9.542;2023-03-14T15:28:19;3.90;;;2.47;;
462;SDS011;218;51.902;9.542;2023-03-14T15:30:47;5.40;;;2.67;;
462;SDS011;218;51.902;9.542;2023-03-14T15:33:14;10.30;;;2.78;;
462;SDS011;218;51.902;9.542;2023-03-14T15:35:42;3.75;;;3.00;;
462;SDS011;218;51.902;9.542;2023-03-14T15:38:10;6.90;;;3.38;;
462;SDS011;218;51.902;9.542;2023-03-14T15:40:39;5.45;;;2.40;;
462;SDS011;218;51.902;9.542;2023-03-14T15:43:07;4.95;;;2.60;;
462;SDS011;218;51.902;9.542;2023-03-14T15:45:34;10.63;;;3.30;;
462;SDS011;218;51.902;9.542;2023-03-14T15:48:01;6.05;;;3.00;;
462;SDS011;218;51.902;9.542;2023-03-14T15:50:28;8.32;;;3.17;;
462;SDS011;218;51.902;9.542;2023-03-14T15:52:56;5.40;;;2.25;;
462;SDS011;218;51.902;9.542;2023-03-14T15:55:23;9.70;;;2.53;;
462;SDS011;218;51.902;9.542;2023-03-14T15:57:51;5.22;;;3.33;;
462;SDS011;218;51.902;9.542;2023-03-14T16:00:19;2.20;;;1.92;;
462;SDS011;218;51.902;9.542;2023-03-14T16:02:47;5.85;;;2.97;;
462;SDS011;218;51.902;9.542;2023-03-14T16:05:15;4.13;;;3.45;;
462;SDS011;218;51.902;9.542;2023-03-14T16:07:44;5.35;;;2.40;;